createdAt,value
2023-03-29T00:01:49.854Z,8.56
2023-03-29T00:04:53.312Z,8.57
2023-03-29T00:07:54.776Z,8.57
2023-03-29T00:10:56.750Z,8.59
2023-03-29T00:13:58.136Z,8.51
2023-03-29T00:16:59.582Z,8.49
2023-03-29T00:20:01.018Z,8.47
2023-03-29T00:23:02.403Z,8.44
2023-03-29T00:26:05.846Z,8.55
2023-03-29T00:29:08.753Z,8.50
2023-03-29T00:32:10.158Z,8.45
2023-03-29T00:35:11.540Z,8.35
2023-03-29T00:38:13.045Z,8.31
2023-03-29T00:41:14.614Z,8.31
2023-03-29T00:44:53.773Z,8.41
2023-03-29T00:47:58.009Z,8.44
2023-03-29T00:51:08.769Z,8.44
2023-03-29T00:54:18.501Z,8.40
2023-03-29T00:57:22.562Z,8.36
2023-03-29T01:00:31.697Z,8.39
2023-03-29T01:03:41.254Z,8.38
2023-03-29T01:06:46.310Z,8.45
2023-03-29T01:09:56.933Z,8.49
2023-03-29T01:13:27.577Z,8.39
2023-03-29T01:16:31.765Z,8.36
2023-03-29T01:19:58.942Z,8.33
2023-03-29T01:23:27.122Z,8.36
2023-03-29T01:26:46.724Z,8.35
2023-03-29T01:30:02.015Z,8.32
2023-03-29T01:33:21.158Z,8.25
2023-03-29T01:36:29.093Z,8.27
2023-03-29T01:39:31.617Z,8.25
2023-03-29T01:42:45.068Z,8.25
2023-03-29T01:46:04.939Z,8.35
2023-03-29T01:49:14.469Z,8.36
2023-03-29T01:52:23.834Z,8.30
2023-03-29T01:55:42.785Z,8.24
2023-03-29T01:58:48.976Z,8.18
2023-03-29T02:01:53.918Z,8.18
2023-03-29T02:04:57.368Z,8.19
2023-03-29T02:08:01.148Z,8.20
2023-03-29T02:11:02.833Z,8.17
2023-03-29T02:14:04.528Z,8.18
2023-03-29T02:17:16.490Z,8.33
2023-03-29T02:20:23.474Z,8.41
2023-03-29T02:23:35.319Z,8.43
2023-03-29T02:26:37.223Z,8.37
2023-03-29T02:29:38.680Z,8.31
2023-03-29T02:32:57.528Z,8.23
2023-03-29T02:36:04.317Z,8.23
2023-03-29T02:39:08.046Z,8.34
2023-03-29T02:42:10.842Z,8.32
2023-03-29T02:45:15.892Z,8.31
2023-03-29T02:48:21.040Z,8.35
2023-03-29T02:51:27.380Z,8.20
2023-03-29T02:54:31.436Z,8.17
2023-03-29T02:57:32.934Z,8.20
2023-03-29T03:00:42.131Z,8.24
2023-03-29T03:03:45.072Z,8.20
2023-03-29T03:06:48.658Z,8.18
2023-03-29T03:09:50.101Z,8.19
2023-03-29T03:12:51.696Z,8.40
2023-03-29T03:15:54.062Z,8.35
2023-03-29T03:18:55.652Z,8.33
2023-03-29T03:21:57.153Z,8.21
2023-03-29T03:24:58.564Z,8.15
2023-03-29T03:27:59.946Z,8.17
2023-03-29T03:31:01.486Z,8.21
2023-03-29T03:34:22.575Z,8.22
2023-03-29T03:37:31.752Z,8.25
2023-03-29T03:40:33.259Z,8.31
2023-03-29T03:43:35.211Z,8.22
2023-03-29T03:46:36.846Z,8.32
2023-03-29T03:49:39.675Z,8.35
2023-03-29T03:52:41.100Z,8.31
2023-03-29T03:55:48.190Z,8.26
2023-03-29T03:58:55.241Z,8.20
2023-03-29T04:01:58.198Z,8.20
2023-03-29T04:05:03.250Z,8.16
2023-03-29T04:08:09.345Z,8.08
2023-03-29T04:11:29.428Z,8.14
2023-03-29T04:14:32.071Z,8.15
2023-03-29T04:17:39.093Z,8.10
2023-03-29T04:21:21.249Z,8.15
2023-03-29T04:24:23.672Z,8.10
2023-03-29T04:27:46.023Z,8.02
2023-03-29T04:30:58.836Z,8.04
2023-03-29T04:34:23.240Z,8.13
2023-03-29T04:37:29.243Z,8.12
2023-03-29T04:40:30.760Z,8.05
2023-03-29T04:43:46.294Z,8.14
2023-03-29T04:47:02.361Z,8.08
2023-03-29T04:50:20.319Z,8.10
2023-03-29T04:53:22.196Z,8.05
2023-03-29T04:56:25.241Z,8.06
2023-03-29T04:59:55.154Z,8.09
2023-03-29T05:03:16.525Z,8.11
2023-03-29T05:06:34.883Z,8.20
2023-03-29T05:09:37.365Z,8.18
2023-03-29T05:12:39.370Z,8.18
2023-03-29T05:15:41.757Z,8.18
2023-03-29T05:18:44.495Z,8.16
2023-03-29T05:21:46.157Z,8.16
2023-03-29T05:24:52.747Z,8.20
2023-03-29T05:27:54.411Z,8.20
2023-03-29T05:31:01.573Z,8.20
2023-03-29T05:34:04.426Z,8.17
2023-03-29T05:37:08.701Z,8.18
2023-03-29T05:40:21.741Z,8.18
2023-03-29T05:43:44.098Z,8.27
2023-03-29T05:46:45.547Z,8.27
2023-03-29T05:49:51.487Z,8.33
2023-03-29T05:52:58.023Z,8.32
2023-03-29T05:55:59.543Z,8.37
2023-03-29T05:59:02.951Z,8.27
2023-03-29T06:02:04.751Z,8.30
2023-03-29T06:05:07.559Z,8.35
2023-03-29T06:08:15.559Z,8.37
2023-03-29T06:11:28.620Z,8.32
2023-03-29T06:14:48.730Z,8.40
2023-03-29T06:18:07.057Z,8.41
2023-03-29T06:21:10.650Z,8.42
2023-03-29T06:24:13.347Z,8.53
2023-03-29T06:27:20.446Z,8.63
2023-03-29T06:30:22.632Z,8.62
2023-03-29T06:33:32.328Z,8.70
2023-03-29T06:36:41.133Z,8.79
2023-03-29T06:39:43.616Z,8.82
2023-03-29T06:42:59.276Z,8.84
2023-03-29T06:46:24.156Z,8.87
2023-03-29T06:49:30.786Z,8.96
2023-03-29T06:52:47.165Z,9.00
2023-03-29T06:55:50.099Z,9.03
2023-03-29T06:59:14.705Z,9.03
2023-03-29T07:02:39.812Z,9.04
2023-03-29T07:05:45.807Z,9.12
2023-03-29T07:08:52.380Z,9.11
2023-03-29T07:12:12.416Z,9.07
2023-03-29T07:15:14.043Z,9.07
2023-03-29T07:18:41.489Z,9.17
2023-03-29T07:21:44.041Z,9.16
2023-03-29T07:24:45.703Z,9.14
2023-03-29T07:27:47.412Z,9.18
2023-03-29T07:30:49.638Z,9.18
2023-03-29T07:33:55.890Z,9.21
2023-03-29T07:36:57.701Z,9.24
2023-03-29T07:40:00.461Z,9.34
2023-03-29T07:43:07.234Z,9.37
2023-03-29T07:46:10.128Z,9.38
2023-03-29T07:49:12.922Z,9.39
2023-03-29T07:52:14.318Z,9.54
2023-03-29T07:55:16.376Z,9.56
2023-03-29T07:58:32.073Z,9.60
2023-03-29T08:01:34.023Z,9.69
2023-03-29T08:04:54.223Z,9.72
2023-03-29T08:08:23.006Z,9.77
2023-03-29T08:11:31.811Z,9.78
2023-03-29T08:14:36.910Z,9.78
2023-03-29T08:17:45.453Z,9.75
2023-03-29T08:20:47.052Z,9.75
2023-03-29T08:23:48.592Z,9.79
2023-03-29T08:26:56.742Z,9.83
2023-03-29T08:29:59.414Z,9.83
2023-03-29T08:33:01.552Z,9.89
2023-03-29T08:36:04.033Z,9.88
2023-03-29T08:39:07.524Z,9.92
2023-03-29T08:42:31.013Z,9.93
2023-03-29T08:45:42.907Z,9.95
2023-03-29T08:48:54.148Z,10.07
2023-03-29T08:52:01.143Z,10.13
2023-03-29T08:55:11.249Z,10.17
2023-03-29T08:58:38.856Z,10.21
2023-03-29T09:01:42.298Z,10.20
2023-03-29T09:04:43.759Z,10.26
2023-03-29T09:07:59.410Z,10.42
2023-03-29T09:11:38.627Z,10.44
2023-03-29T09:15:06.645Z,10.55
2023-03-29T09:18:52.990Z,10.59
2023-03-29T09:22:22.359Z,10.77
2023-03-29T09:26:03.188Z,11.01
2023-03-29T09:29:47.315Z,11.31
2023-03-29T09:32:53.526Z,11.50
2023-03-29T09:36:07.949Z,11.73
2023-03-29T09:39:14.366Z,11.98
2023-03-29T09:42:19.763Z,12.10
2023-03-29T09:45:21.865Z,12.07
2023-03-29T09:48:27.041Z,12.13
2023-03-29T09:51:34.266Z,12.16
2023-03-29T09:54:35.938Z,12.22
2023-03-29T09:58:17.957Z,12.27
2023-03-29T10:01:25.824Z,12.35
2023-03-29T10:04:27.826Z,12.44
2023-03-29T10:07:44.435Z,12.55
2023-03-29T10:10:47.037Z,12.63
2023-03-29T10:13:54.749Z,12.64
2023-03-29T10:16:56.879Z,12.62
2023-03-29T10:20:04.181Z,12.70
2023-03-29T10:23:08.720Z,12.81
2023-03-29T10:26:29.371Z,12.94
2023-03-29T10:29:42.157Z,13.22
2023-03-29T10:32:44.022Z,13.26
2023-03-29T10:35:47.222Z,13.30
2023-03-29T10:38:50.905Z,13.47
2023-03-29T10:41:53.140Z,13.61
2023-03-29T10:44:57.212Z,13.56
2023-03-29T10:47:59.081Z,13.61
2023-03-29T10:51:02.923Z,13.98
2023-03-29T10:54:06.709Z,14.25
2023-03-29T10:57:11.066Z,14.12
2023-03-29T11:00:52.188Z,13.97
2023-03-29T11:04:41.327Z,14.24
2023-03-29T11:08:01.564Z,14.39
2023-03-29T11:11:24.175Z,14.62
2023-03-29T11:14:51.566Z,14.71
2023-03-29T11:18:11.626Z,14.80
2023-03-29T11:21:37.918Z,15.13
2023-03-29T11:25:09.954Z,15.38
2023-03-29T11:28:23.941Z,15.42
2023-03-29T11:31:33.458Z,15.39
2023-03-29T11:35:09.925Z,15.55
2023-03-29T11:38:25.265Z,15.47
2023-03-29T11:41:41.109Z,15.47
2023-03-29T11:44:44.681Z,15.68
2023-03-29T11:47:47.899Z,16.10
2023-03-29T11:51:11.773Z,16.46
2023-03-29T11:54:28.415Z,16.72
2023-03-29T11:57:47.786Z,16.71
2023-03-29T12:00:56.311Z,16.67
2023-03-29T12:04:05.506Z,16.54
2023-03-29T12:07:17.187Z,16.41
2023-03-29T12:10:21.061Z,16.10
2023-03-29T12:13:28.892Z,15.94
2023-03-29T12:16:39.435Z,15.89
2023-03-29T12:19:47.640Z,15.97
2023-03-29T12:22:50.898Z,15.90
2023-03-29T12:26:16.153Z,16.16
2023-03-29T12:29:29.626Z,16.43
2023-03-29T12:33:04.156Z,16.83
2023-03-29T12:36:43.007Z,17.07
2023-03-29T12:40:13.889Z,17.25
2023-03-29T12:43:54.414Z,17.50
2023-03-29T12:46:59.213Z,17.73
2023-03-29T12:50:01.424Z,17.87
2023-03-29T12:53:26.635Z,17.68
2023-03-29T12:57:21.318Z,17.32
2023-03-29T13:00:32.387Z,16.84
2023-03-29T13:03:39.768Z,16.70
2023-03-29T13:06:47.109Z,16.64
2023-03-29T13:09:54.391Z,16.73
2023-03-29T13:12:56.078Z,16.82
2023-03-29T13:16:12.372Z,16.80
2023-03-29T13:19:27.178Z,17.01
2023-03-29T13:22:57.257Z,17.21
2023-03-29T13:26:13.725Z,17.30
2023-03-29T13:29:47.967Z,17.35
2023-03-29T13:33:23.546Z,17.34
2023-03-29T13:36:47.515Z,17.54
2023-03-29T13:39:54.589Z,18.02
2023-03-29T13:43:08.231Z,18.28
2023-03-29T13:46:22.179Z,18.53
2023-03-29T13:49:29.219Z,18.65
2023-03-29T13:52:35.217Z,18.43
2023-03-29T13:55:45.430Z,18.32
2023-03-29T13:58:53.931Z,18.41
2023-03-29T14:01:58.685Z,18.09
2023-03-29T14:05:02.048Z,18.20
2023-03-29T14:08:19.482Z,18.30
2023-03-29T14:11:31.072Z,17.89
2023-03-29T14:14:32.951Z,17.33
2023-03-29T14:17:36.319Z,17.21
2023-03-29T14:20:38.273Z,17.03
2023-03-29T14:23:43.850Z,16.81
2023-03-29T14:26:47.038Z,16.84
2023-03-29T14:29:51.112Z,16.65
2023-03-29T14:32:52.873Z,16.61
2023-03-29T14:36:00.779Z,16.54
2023-03-29T14:39:05.965Z,16.57
2023-03-29T14:42:16.331Z,16.63
2023-03-29T14:45:23.141Z,16.64
2023-03-29T14:48:24.956Z,16.67
2023-03-29T14:51:30.076Z,16.71
2023-03-29T14:54:33.271Z,16.64
2023-03-29T14:57:36.411Z,16.46
2023-03-29T15:00:42.248Z,16.49
2023-03-29T15:03:49.337Z,16.31
2023-03-29T15:06:52.262Z,16.22
2023-03-29T15:09:55.126Z,16.34
2023-03-29T15:12:57.094Z,16.31
2023-03-29T15:16:01.684Z,16.57
2023-03-29T15:19:04.341Z,16.73
2023-03-29T15:22:10.953Z,16.74
2023-03-29T15:25:18.336Z,16.74
2023-03-29T15:28:32.323Z,16.80
2023-03-29T15:31:36.869Z,16.97
2023-03-29T15:34:38.416Z,16.87
2023-03-29T15:37:39.789Z,16.89
2023-03-29T15:40:41.319Z,16.81
2023-03-29T15:43:43.149Z,16.82
2023-03-29T15:46:44.695Z,16.83
2023-03-29T15:49:47.120Z,16.68
2023-03-29T15:52:48.486Z,16.61
2023-03-29T15:55:55.597Z,16.64
2023-03-29T15:58:56.953Z,16.69
2023-03-29T16:01:59.019Z,16.62
2023-03-29T16:05:01.641Z,16.53
2023-03-29T16:08:03.025Z,16.48
2023-03-29T16:11:06.620Z,16.52
2023-03-29T16:14:28.240Z,16.31
2023-03-29T16:17:29.703Z,16.22
2023-03-29T16:20:31.240Z,16.19
2023-03-29T16:23:32.844Z,16.30
2023-03-29T16:26:34.418Z,16.19
2023-03-29T16:29:36.041Z,16.10
2023-03-29T16:32:38.811Z,16.05
2023-03-29T16:35:40.701Z,16.02
2023-03-29T16:38:42.120Z,15.99
2023-03-29T16:41:46.877Z,15.97
2023-03-29T16:44:48.351Z,15.90
2023-03-29T16:47:50.016Z,15.85
2023-03-29T16:50:51.784Z,15.83
2023-03-29T16:53:53.313Z,15.74
2023-03-29T16:56:54.716Z,15.76
2023-03-29T16:59:56.746Z,15.67
2023-03-29T17:03:01.600Z,15.67
2023-03-29T17:06:04.424Z,15.66
2023-03-29T17:09:07.201Z,15.67
2023-03-29T17:12:08.581Z,15.61
2023-03-29T17:15:10.438Z,15.67
2023-03-29T17:18:12.224Z,15.59
2023-03-29T17:21:13.755Z,15.53
2023-03-29T17:24:15.195Z,15.47
2023-03-29T17:27:16.632Z,15.46
2023-03-29T17:30:18.094Z,15.49
2023-03-29T17:33:22.500Z,15.42
2023-03-29T17:36:25.029Z,15.33
2023-03-29T17:39:27.096Z,15.31
2023-03-29T17:42:28.513Z,15.27
2023-03-29T17:45:30.036Z,15.25
2023-03-29T17:48:32.802Z,15.28
2023-03-29T17:51:34.195Z,15.27
2023-03-29T17:54:35.644Z,15.25
2023-03-29T17:57:38.718Z,15.17
2023-03-29T18:00:40.266Z,15.25
2023-03-29T18:03:42.403Z,15.23
2023-03-29T18:06:43.938Z,15.17
2023-03-29T18:09:45.355Z,15.00
2023-03-29T18:12:46.873Z,15.05
2023-03-29T18:15:55.465Z,15.02
2023-03-29T18:18:57.088Z,14.94
2023-03-29T18:21:58.570Z,14.84
2023-03-29T18:24:59.961Z,14.87
2023-03-29T18:28:01.326Z,14.85
2023-03-29T18:31:04.110Z,14.86
2023-03-29T18:34:05.679Z,14.83
2023-03-29T18:37:09.157Z,14.84
2023-03-29T18:40:10.921Z,14.85
2023-03-29T18:43:12.555Z,14.85
2023-03-29T18:46:14.049Z,14.82
2023-03-29T18:49:15.494Z,14.84
2023-03-29T18:52:16.874Z,14.82
2023-03-29T18:55:18.403Z,14.82
2023-03-29T18:58:23.754Z,14.85
2023-03-29T19:01:25.983Z,14.83
2023-03-29T19:04:28.699Z,14.77
2023-03-29T19:07:30.387Z,14.76
2023-03-29T19:10:35.409Z,14.75
2023-03-29T19:13:37.355Z,14.72
2023-03-29T19:16:41.491Z,14.73
2023-03-29T19:19:44.159Z,14.71
2023-03-29T19:22:45.586Z,14.88
2023-03-29T19:25:57.519Z,14.80
2023-03-29T19:29:00.239Z,14.72
2023-03-29T19:32:02.082Z,14.84
2023-03-29T19:35:04.233Z,14.74
2023-03-29T19:38:05.834Z,14.71
2023-03-29T19:41:09.969Z,14.71
2023-03-29T19:44:11.511Z,14.79
2023-03-29T19:47:12.964Z,14.70
2023-03-29T19:50:14.665Z,14.77
2023-03-29T19:53:16.068Z,14.82
2023-03-29T19:56:17.761Z,14.84
2023-03-29T19:59:20.110Z,14.75
2023-03-29T20:02:21.537Z,14.63
2023-03-29T20:05:24.100Z,14.57
2023-03-29T20:08:25.986Z,14.61
2023-03-29T20:11:28.755Z,14.54
2023-03-29T20:14:30.400Z,14.53
2023-03-29T20:17:31.844Z,14.60
2023-03-29T20:20:35.540Z,14.57
2023-03-29T20:23:37.210Z,14.52
2023-03-29T20:26:38.621Z,14.44
2023-03-29T20:29:40.120Z,14.41
2023-03-29T20:32:41.725Z,14.46
2023-03-29T20:35:46.772Z,14.39
2023-03-29T20:38:49.472Z,14.37
2023-03-29T20:41:51.541Z,14.41
2023-03-29T20:44:53.790Z,14.39
2023-03-29T20:47:58.018Z,14.38
2023-03-29T20:51:03.118Z,14.58
2023-03-29T20:54:05.856Z,14.47
2023-03-29T20:57:09.979Z,14.44
2023-03-29T21:00:11.959Z,14.27
2023-03-29T21:03:13.629Z,14.25
2023-03-29T21:06:15.097Z,14.32
2023-03-29T21:09:19.027Z,14.38
2023-03-29T21:12:20.701Z,14.21
2023-03-29T21:15:22.066Z,14.15
2023-03-29T21:18:23.456Z,14.05
2023-03-29T21:21:24.945Z,14.11
2023-03-29T21:24:26.368Z,14.12
2023-03-29T21:27:27.761Z,14.11
2023-03-29T21:30:31.485Z,14.26
2023-03-29T21:33:34.491Z,14.21
2023-03-29T21:36:36.062Z,14.16
2023-03-29T21:39:37.529Z,14.15
2023-03-29T21:42:39.037Z,14.13
2023-03-29T21:45:40.522Z,14.25
2023-03-29T21:48:41.894Z,14.25
2023-03-29T21:51:43.312Z,14.23
2023-03-29T21:54:44.720Z,14.17
2023-03-29T21:57:46.087Z,14.15
2023-03-29T22:00:48.372Z,14.15
2023-03-29T22:03:49.767Z,14.08
2023-03-29T22:06:51.242Z,14.05
2023-03-29T22:09:52.645Z,13.98
2023-03-29T22:12:54.017Z,14.10
2023-03-29T22:16:00.149Z,14.06
2023-03-29T22:19:01.854Z,14.01
2023-03-29T22:22:03.696Z,13.98
2023-03-29T22:25:05.752Z,13.97
2023-03-29T22:28:07.117Z,14.01
2023-03-29T22:31:11.152Z,14.02
2023-03-29T22:34:12.543Z,14.00
2023-03-29T22:37:13.941Z,13.94
2023-03-29T22:40:15.390Z,13.88
2023-03-29T22:43:16.853Z,13.83
2023-03-29T22:46:19.028Z,13.78
2023-03-29T22:49:20.886Z,13.76
2023-03-29T22:52:22.298Z,13.72
2023-03-29T22:55:23.754Z,13.70
2023-03-29T22:58:25.618Z,13.69
2023-03-29T23:01:27.040Z,13.59
2023-03-29T23:04:28.843Z,13.55
2023-03-29T23:07:30.293Z,13.52
2023-03-29T23:10:31.696Z,13.57
2023-03-29T23:13:33.500Z,13.68
2023-03-29T23:16:35.166Z,13.84
2023-03-29T23:19:37.713Z,13.92
2023-03-29T23:22:39.649Z,13.94
2023-03-29T23:25:43.328Z,13.93
2023-03-29T23:28:44.775Z,13.93
2023-03-29T23:31:47.482Z,13.94
2023-03-29T23:34:49.024Z,13.94
2023-03-29T23:37:51.119Z,13.87
2023-03-29T23:40:58.695Z,13.87
2023-03-29T23:44:00.227Z,13.85
2023-03-29T23:47:01.726Z,13.77
2023-03-29T23:50:03.588Z,13.80
2023-03-29T23:53:04.959Z,13.74
2023-03-29T23:56:07.577Z,13.74
2023-03-29T23:59:09.084Z,13.74
